Time;durP1;ratioP1;P1;durP2;ratioP2;P2;SDS_P1;SDS_P2;PMS_P1;PMS_P2;Temp;Humidity;BMP_temperature;BMP_pressure;BME280_temperature;BME280_humidity;BME280_pressure;Samples;Min_cycle;Max_cycle;Signal;HPM_P1;HPM_P2
2022/03/30 00:01:18;;;;;;;;;;;20.50;37.40;;;;;;5070938;28;20007;-48
2022/03/30 00:03:45;;;;;;;;;;;20.50;37.30;;;;;;5070985;28;19921;-48
2022/03/30 00:06:14;;;;;;;;;;;20.50;37.40;;;;;;5074751;28;19920;-46
2022/03/30 00:08:42;;;;;;;;;;;20.50;37.30;;;;;;5076412;28;20020;-45
2022/03/30 00:11:10;;;;;;;;;;;20.50;37.30;;;;;;5061068;28;19932;-47
2022/03/30 00:13:37;;;;;;;;;;;20.50;37.30;;;;;;5070351;28;19920;-48
2022/03/30 00:16:04;;;;;;;;;;;20.50;37.30;;;;;;5067986;28;19928;-48
2022/03/30 00:18:30;;;;;;;;;;;20.50;37.30;;;;;;5075361;28;19959;-46
2022/03/30 00:20:57;;;;;;;;;;;20.50;37.30;;;;;;5068251;28;19931;-46
2022/03/30 00:23:26;;;;;;;;;;;20.50;37.90;;;;;;5068984;28;20392;-46
2022/03/30 00:25:52;;;;;;;;;;;20.50;37.30;;;;;;5077490;28;19963;-48
2022/03/30 00:28:19;;;;;;;;;;;20.50;37.30;;;;;;5062175;28;19925;-45
2022/03/30 00:30:46;;;;;;;;;;;20.50;37.30;;;;;;5068709;28;20015;-49
2022/03/30 00:33:13;;;;;;;;;;;20.50;37.30;;;;;;5084780;28;19920;-48
2022/03/30 00:35:39;;;;;;;;;;;20.50;37.30;;;;;;5083297;28;20281;-48
2022/03/30 00:38:06;;;;;;;;;;;20.50;37.30;;;;;;5068192;28;19982;-48
2022/03/30 00:40:34;;;;;;;;;;;20.50;37.30;;;;;;5085653;28;19928;-45
2022/03/30 00:43:01;;;;;;;;;;;20.50;37.30;;;;;;5081238;28;20331;-47
2022/03/30 00:45:28;;;;;;;;;;;20.50;37.20;;;;;;5080259;28;20027;-44
2022/03/30 00:47:54;;;;;;;;;;;20.50;37.30;;;;;;5067358;28;20433;-46
2022/03/30 00:50:22;;;;;;;;;;;20.50;37.20;;;;;;5079115;28;19920;-48
2022/03/30 00:52:50;;;;;;;;;;;20.50;37.30;;;;;;5085728;28;19920;-46
2022/03/30 00:55:17;;;;;;;;;;;20.50;37.30;;;;;;5079379;28;19924;-47
2022/03/30 00:57:46;;;;;;;;;;;20.50;37.20;;;;;;5083264;28;19920;-47
2022/03/30 01:00:14;;;;;;;;;;;20.50;37.20;;;;;;5083107;28;19920;-47
2022/03/30 01:02:43;;;;;;;;;;;20.50;37.20;;;;;;5079234;28;19921;-46
2022/03/30 01:05:10;;;;;;;;;;;20.50;37.20;;;;;;5082514;28;19924;-48
2022/03/30 01:07:36;;;;;;;;;;;20.50;37.20;;;;;;5068068;28;19952;-45
2022/03/30 01:10:04;;;;;;;;;;;20.50;37.20;;;;;;5072328;28;19974;-47
2022/03/30 01:12:32;;;;;;;;;;;20.50;37.20;;;;;;5080772;28;19920;-49
2022/03/30 01:15:00;;;;;;;;;;;20.50;37.20;;;;;;5081751;28;19926;-44
2022/03/30 01:17:27;;;;;;;;;;;20.50;37.20;;;;;;5077137;28;19939;-49
2022/03/30 01:19:54;;;;;;;;;;;20.50;37.20;;;;;;5084150;28;19927;-44
2022/03/30 01:22:22;;;;;;;;;;;20.50;37.20;;;;;;5101401;28;19987;-47
2022/03/30 01:24:48;;;;;;;;;;;20.50;37.20;;;;;;5081899;28;19942;-48
2022/03/30 01:27:15;;;;;;;;;;;20.50;37.20;;;;;;5076743;28;19920;-47
2022/03/30 01:32:27;;;;;;;;;;;20.50;37.20;;;;;;5103304;28;19930;-44
2022/03/30 01:34:53;;;;;;;;;;;20.50;37.20;;;;;;5092802;28;20246;-47
2022/03/30 01:37:23;;;;;;;;;;;20.50;37.80;;;;;;5079270;28;19924;-44
2022/03/30 01:39:51;;;;;;;;;;;20.50;37.20;;;;;;5073841;28;19973;-49
2022/03/30 01:42:18;;;;;;;;;;;20.50;37.20;;;;;;5081549;28;19927;-49
2022/03/30 01:44:45;;;;;;;;;;;20.50;37.20;;;;;;5056326;28;19920;-45
2022/03/30 01:47:12;;;;;;;;;;;20.40;37.10;;;;;;5073783;28;20366;-47
2022/03/30 01:49:39;;;;;;;;;;;20.50;37.20;;;;;;5070358;28;19920;-47
2022/03/30 01:52:07;;;;;;;;;;;20.50;37.20;;;;;;5064071;28;20050;-47
2022/03/30 01:54:36;;;;;;;;;;;20.50;37.20;;;;;;5072036;28;19921;-44
2022/03/30 01:57:03;;;;;;;;;;;20.50;37.20;;;;;;5071146;28;20232;-47
2022/03/30 01:59:30;;;;;;;;;;;20.50;37.20;;;;;;5069947;28;19920;-43
2022/03/30 02:01:56;;;;;;;;;;;20.40;37.10;;;;;;5065223;28;19970;-48
2022/03/30 02:04:24;;;;;;;;;;;20.50;37.20;;;;;;5058295;28;19973;-49
2022/03/30 02:06:51;;;;;;;;;;;20.50;37.10;;;;;;5071813;28;19932;-44
2022/03/30 02:09:18;;;;;;;;;;;20.40;37.10;;;;;;5063464;28;19924;-46
2022/03/30 02:11:46;;;;;;;;;;;20.50;37.10;;;;;;5063929;28;19927;-45
2022/03/30 02:14:13;;;;;;;;;;;20.50;37.10;;;;;;5068066;28;20011;-47
2022/03/30 02:16:39;;;;;;;;;;;20.40;37.10;;;;;;5074033;28;20354;-46
2022/03/30 02:19:06;;;;;;;;;;;20.40;37.10;;;;;;5068690;28;19966;-45
2022/03/30 02:21:34;;;;;;;;;;;20.50;37.10;;;;;;5061679;28;19921;-44
2022/03/30 02:24:01;;;;;;;;;;;20.40;37.10;;;;;;5061097;28;19921;-44
2022/03/30 02:26:30;;;;;;;;;;;20.40;37.10;;;;;;5061202;28;19925;-46
2022/03/30 02:28:58;;;;;;;;;;;20.40;37.10;;;;;;5073953;28;19920;-44
2022/03/30 02:31:25;;;;;;;;;;;20.40;37.10;;;;;;5074844;28;20344;-45
2022/03/30 02:33:52;;;;;;;;;;;20.40;37.10;;;;;;5079570;28;19924;-46
2022/03/30 02:36:19;;;;;;;;;;;20.40;37.10;;;;;;5080640;28;20434;-45
2022/03/30 02:38:45;;;;;;;;;;;20.40;37.10;;;;;;5080122;28;19921;-43
2022/03/30 02:41:12;;;;;;;;;;;20.40;37.10;;;;;;5085447;28;19925;-44
2022/03/30 02:43:39;;;;;;;;;;;20.40;37.10;;;;;;5082933;28;19920;-44
2022/03/30 02:46:07;;;;;;;;;;;20.40;37.10;;;;;;5080392;28;19966;-47
2022/03/30 02:48:35;;;;;;;;;;;20.40;37.10;;;;;;5082476;28;19920;-45
2022/03/30 02:51:03;;;;;;;;;;;20.40;37.00;;;;;;5078536;28;19953;-43
2022/03/30 02:53:29;;;;;;;;;;;20.40;37.10;;;;;;5061130;28;19921;-47
2022/03/30 02:55:56;;;;;;;;;;;20.40;37.00;;;;;;5065445;28;19928;-45
2022/03/30 02:58:25;;;;;;;;;;;20.40;37.60;;;;;;5074911;28;23029;-45
2022/03/30 03:00:53;;;;;;;;;;;20.40;37.00;;;;;;5069528;28;19932;-48
2022/03/30 03:03:21;;;;;;;;;;;20.40;37.60;;;;;;5094372;28;19928;-46
2022/03/30 03:05:48;;;;;;;;;;;20.40;37.00;;;;;;5094652;28;20015;-48
2022/03/30 03:08:15;;;;;;;;;;;20.40;37.00;;;;;;5063783;28;19980;-44
2022/03/30 03:10:42;;;;;;;;;;;20.40;37.00;;;;;;5097717;28;19921;-44
2022/03/30 03:13:09;;;;;;;;;;;20.40;37.00;;;;;;5062840;28;19943;-46
2022/03/30 03:15:36;;;;;;;;;;;20.40;37.00;;;;;;5097075;28;20250;-45
2022/03/30 03:18:04;;;;;;;;;;;20.40;37.00;;;;;;5061419;28;19921;-45
2022/03/30 03:20:32;;;;;;;;;;;20.40;37.00;;;;;;5064473;28;19993;-45
2022/03/30 03:23:01;;;;;;;;;;;20.40;37.00;;;;;;5064634;28;19966;-45
2022/03/30 03:25:29;;;;;;;;;;;20.40;37.00;;;;;;5065128;28;19920;-45
2022/03/30 03:27:56;;;;;;;;;;;20.40;37.00;;;;;;5097198;28;19928;-45
2022/03/30 03:30:23;;;;;;;;;;;20.40;37.60;;;;;;5063607;28;20297;-43
2022/03/30 03:32:50;;;;;;;;;;;20.40;37.00;;;;;;5079332;28;19920;-46
2022/03/30 03:35:17;;;;;;;;;;;20.40;37.00;;;;;;5084574;28;19921;-45
2022/03/30 03:37:45;;;;;;;;;;;20.40;37.00;;;;;;5082189;28;19976;-45
2022/03/30 03:40:12;;;;;;;;;;;20.40;37.00;;;;;;5081344;28;19921;-48
2022/03/30 03:42:39;;;;;;;;;;;20.40;37.00;;;;;;5086363;28;20314;-47
2022/03/30 03:45:06;;;;;;;;;;;20.40;37.00;;;;;;5072393;28;20312;-44
2022/03/30 03:47:33;;;;;;;;;;;20.40;37.00;;;;;;5072704;28;19924;-45
2022/03/30 03:50:00;;;;;;;;;;;20.40;37.00;;;;;;5084593;28;19991;-44
2022/03/30 03:52:26;;;;;;;;;;;20.40;37.00;;;;;;5088434;28;19932;-44
2022/03/30 03:54:54;;;;;;;;;;;20.40;37.00;;;;;;5085715;28;19943;-44
2022/03/30 03:57:21;;;;;;;;;;;20.40;37.00;;;;;;5085875;28;19920;-45
2022/03/30 03:59:48;;;;;;;;;;;20.40;37.00;;;;;;5078312;28;19970;-50
2022/03/30 04:02:14;;;;;;;;;;;20.40;37.00;;;;;;5075950;28;19996;-45
2022/03/30 04:04:41;;;;;;;;;;;20.40;37.00;;;;;;5085458;28;19921;-44
2022/03/30 04:07:08;;;;;;;;;;;20.40;37.00;;;;;;5082716;28;19920;-49
2022/03/30 04:09:35;;;;;;;;;;;20.40;37.00;;;;;;5088485;28;19920;-47
2022/03/30 04:12:03;;;;;;;;;;;20.40;37.00;;;;;;5088094;28;20031;-47
2022/03/30 04:14:30;;;;;;;;;;;20.40;37.00;;;;;;5111152;28;19978;-44
2022/03/30 04:16:56;;;;;;;;;;;20.40;37.00;;;;;;5100718;28;19943;-44
2022/03/30 04:19:23;;;;;;;;;;;20.40;37.00;;;;;;5097485;28;19978;-44
2022/03/30 04:21:50;;;;;;;;;;;20.40;37.00;;;;;;5063523;28;19921;-46
2022/03/30 04:24:16;;;;;;;;;;;20.40;37.00;;;;;;5072653;28;19927;-48
2022/03/30 04:26:43;;;;;;;;;;;20.40;36.90;;;;;;5068480;28;19947;-45
2022/03/30 04:29:11;;;;;;;;;;;20.40;37.00;;;;;;5062942;28;19925;-44
2022/03/30 04:31:38;;;;;;;;;;;20.40;37.00;;;;;;5068090;28;19988;-50
2022/03/30 04:34:05;;;;;;;;;;;20.40;37.00;;;;;;5098722;28;19920;-46
2022/03/30 04:36:31;;;;;;;;;;;20.40;37.00;;;;;;5099743;28;19921;-47
2022/03/30 04:38:58;;;;;;;;;;;20.40;37.00;;;;;;5084341;28;19927;-45
2022/03/30 04:41:25;;;;;;;;;;;20.40;37.00;;;;;;5080697;28;19928;-48
2022/03/30 04:43:52;;;;;;;;;;;20.40;37.50;;;;;;5065971;28;19959;-47
2022/03/30 04:46:20;;;;;;;;;;;20.40;37.00;;;;;;5064516;28;19927;-44
2022/03/30 04:48:46;;;;;;;;;;;20.40;36.90;;;;;;5065148;28;19920;-44
2022/03/30 04:51:13;;;;;;;;;;;20.40;36.90;;;;;;5064562;28;19924;-47
2022/03/30 04:53:40;;;;;;;;;;;20.40;36.90;;;;;;5067521;28;19926;-46
2022/03/30 04:56:08;;;;;;;;;;;20.40;36.90;;;;;;5120101;28;19920;-48
2022/03/30 04:58:35;;;;;;;;;;;20.40;36.90;;;;;;5065886;28;19920;-46
2022/03/30 05:01:02;;;;;;;;;;;20.40;36.90;;;;;;5068035;28;19928;-46
2022/03/30 05:03:30;;;;;;;;;;;20.40;37.00;;;;;;5085063;28;19970;-46
2022/03/30 05:05:58;;;;;;;;;;;20.40;36.90;;;;;;5084162;28;19958;-45
2022/03/30 05:08:25;;;;;;;;;;;20.40;36.90;;;;;;5120059;28;19920;-45
2022/03/30 05:10:52;;;;;;;;;;;20.40;36.90;;;;;;5083867;28;19973;-45
2022/03/30 05:13:18;;;;;;;;;;;20.40;36.90;;;;;;5084003;28;20372;-45
2022/03/30 05:15:45;;;;;;;;;;;20.40;36.90;;;;;;5068265;28;20437;-46
2022/03/30 05:18:12;;;;;;;;;;;20.40;36.90;;;;;;5086452;28;20337;-44
2022/03/30 05:20:44;;;;;;;;;;;20.40;36.90;;;;;;5087321;28;19921;-44
2022/03/30 05:23:11;;;;;;;;;;;20.40;36.90;;;;;;5088249;28;19927;-45
2022/03/30 05:25:38;;;;;;;;;;;20.40;36.90;;;;;;5088270;28;19921;-45
2022/03/30 05:28:05;;;;;;;;;;;20.40;36.90;;;;;;5086745;28;19924;-44
2022/03/30 05:30:32;;;;;;;;;;;20.40;36.90;;;;;;5066036;28;19992;-44
2022/03/30 05:33:00;;;;;;;;;;;20.40;36.90;;;;;;5081857;28;20415;-45
2022/03/30 05:35:27;;;;;;;;;;;20.40;36.90;;;;;;5082247;28;19924;-46
2022/03/30 05:37:56;;;;;;;;;;;20.40;36.90;;;;;;5047567;28;20358;-44
2022/03/30 05:40:23;;;;;;;;;;;20.40;36.90;;;;;;5068391;28;19921;-45
2022/03/30 05:42:50;;;;;;;;;;;20.40;36.90;;;;;;5066718;28;19921;-45
2022/03/30 05:45:17;;;;;;;;;;;20.40;36.90;;;;;;5064071;28;19951;-45
2022/03/30 05:47:44;;;;;;;;;;;20.40;36.90;;;;;;5063437;28;19927;-44
2022/03/30 05:50:11;;;;;;;;;;;20.40;36.90;;;;;;5064994;28;19920;-44
2022/03/30 05:52:37;;;;;;;;;;;20.40;36.90;;;;;;5064954;28;19955;-44
2022/03/30 05:55:08;;;;;;;;;;;20.40;36.90;;;;;;5081175;28;19925;-47
2022/03/30 05:57:35;;;;;;;;;;;20.40;36.90;;;;;;5067217;28;19925;-46
2022/03/30 06:00:03;;;;;;;;;;;20.40;36.90;;;;;;5050934;28;19921;-44
2022/03/30 06:02:29;;;;;;;;;;;20.40;36.90;;;;;;5066823;28;19920;-44
2022/03/30 06:04:57;;;;;;;;;;;20.40;36.90;;;;;;5064602;28;19943;-44
2022/03/30 06:07:27;;;;;;;;;;;20.40;36.90;;;;;;5063983;28;19991;-45
2022/03/30 06:09:54;;;;;;;;;;;20.40;36.90;;;;;;5097838;28;19991;-46
2022/03/30 06:12:23;;;;;;;;;;;20.40;36.90;;;;;;5114748;28;20362;-48
2022/03/30 06:14:51;;;;;;;;;;;20.40;36.90;;;;;;5085762;28;19920;-44
2022/03/30 06:17:18;;;;;;;;;;;20.40;36.90;;;;;;5070164;28;19920;-44
2022/03/30 06:19:45;;;;;;;;;;;20.40;36.90;;;;;;5065518;28;19956;-47
2022/03/30 06:22:12;;;;;;;;;;;20.40;36.90;;;;;;5063706;28;19921;-47
2022/03/30 06:24:40;;;;;;;;;;;20.40;36.90;;;;;;5098158;28;20431;-46
2022/03/30 06:27:07;;;;;;;;;;;20.40;36.90;;;;;;5071948;28;19920;-50
2022/03/30 06:29:35;;;;;;;;;;;20.40;36.90;;;;;;5086256;28;19933;-46
2022/03/30 06:32:02;;;;;;;;;;;20.40;36.90;;;;;;5083280;28;19947;-45
2022/03/30 06:34:29;;;;;;;;;;;20.40;36.90;;;;;;5085637;28;19927;-45
2022/03/30 06:36:55;;;;;;;;;;;20.40;36.90;;;;;;5080032;28;19992;-45
2022/03/30 06:39:22;;;;;;;;;;;20.40;36.90;;;;;;5084931;28;19920;-45
2022/03/30 06:41:49;;;;;;;;;;;20.40;36.90;;;;;;5081331;28;19942;-47
2022/03/30 06:44:16;;;;;;;;;;;20.40;36.90;;;;;;5080389;28;19924;-45
2022/03/30 06:46:46;;;;;;;;;;;20.40;36.90;;;;;;5084586;28;19921;-45
2022/03/30 06:49:13;;;;;;;;;;;20.40;36.90;;;;;;5081898;28;19927;-46
2022/03/30 06:51:40;;;;;;;;;;;20.40;36.90;;;;;;5066862;28;19921;-48
2022/03/30 06:54:07;;;;;;;;;;;20.40;36.90;;;;;;5104838;28;19920;-46
2022/03/30 06:56:34;;;;;;;;;;;20.40;36.90;;;;;;5061635;28;19921;-47
2022/03/30 06:59:01;;;;;;;;;;;20.40;37.00;;;;;;5084069;28;19942;-45
2022/03/30 07:01:28;;;;;;;;;;;20.40;36.90;;;;;;5070307;28;19939;-44
2022/03/30 07:03:56;;;;;;;;;;;20.40;36.90;;;;;;5065703;28;19983;-45
2022/03/30 07:06:23;;;;;;;;;;;20.40;36.90;;;;;;5095283;28;19920;-48
2022/03/30 07:11:34;;;;;;;;;;;20.40;36.90;;;;;;5069805;28;19920;-44
2022/03/30 07:14:00;;;;;;;;;;;20.40;36.90;;;;;;5081185;28;19927;-45
2022/03/30 07:16:27;;;;;;;;;;;20.40;36.90;;;;;;5063616;28;19920;-49
2022/03/30 07:18:55;;;;;;;;;;;20.40;36.90;;;;;;5072850;28;19921;-48
2022/03/30 07:21:24;;;;;;;;;;;20.50;37.00;;;;;;5077655;28;19931;-44
2022/03/30 07:23:51;;;;;;;;;;;20.40;36.90;;;;;;5074694;28;19920;-46
2022/03/30 07:26:18;;;;;;;;;;;20.40;36.90;;;;;;5063539;28;19983;-44
2022/03/30 07:28:45;;;;;;;;;;;20.40;36.90;;;;;;5073157;28;19968;-44
2022/03/30 07:31:13;;;;;;;;;;;20.50;37.00;;;;;;5074686;28;20187;-44
2022/03/30 07:33:39;;;;;;;;;;;20.40;36.90;;;;;;5073944;28;19974;-46
2022/03/30 07:36:06;;;;;;;;;;;20.50;37.00;;;;;;5069438;28;19982;-46
2022/03/30 07:38:35;;;;;;;;;;;20.40;36.90;;;;;;5069681;28;19928;-47
2022/03/30 07:41:02;;;;;;;;;;;20.40;36.80;;;;;;5072500;28;19927;-50
2022/03/30 07:43:31;;;;;;;;;;;20.50;37.00;;;;;;5070169;28;19925;-47
2022/03/30 07:45:58;;;;;;;;;;;20.50;36.90;;;;;;5091528;28;19992;-46
2022/03/30 07:48:25;;;;;;;;;;;20.50;36.90;;;;;;5073473;28;20286;-45
2022/03/30 07:50:52;;;;;;;;;;;20.50;36.90;;;;;;5072248;28;20269;-48
2022/03/30 07:53:19;;;;;;;;;;;20.50;36.90;;;;;;5074334;28;19974;-44
2022/03/30 07:55:48;;;;;;;;;;;20.50;37.50;;;;;;5070345;28;19921;-44
2022/03/30 07:58:15;;;;;;;;;;;20.50;36.90;;;;;;5063236;28;19978;-44
2022/03/30 08:00:41;;;;;;;;;;;20.50;36.90;;;;;;5059746;28;19948;-48
2022/03/30 08:03:08;;;;;;;;;;;20.50;36.90;;;;;;5050664;28;19935;-48
2022/03/30 08:05:35;;;;;;;;;;;20.50;36.90;;;;;;5060259;28;20292;-49
2022/03/30 08:08:02;;;;;;;;;;;20.50;36.90;;;;;;5058704;28;19920;-45
2022/03/30 08:10:30;;;;;;;;;;;20.50;36.90;;;;;;5060920;28;19970;-51
2022/03/30 08:12:58;;;;;;;;;;;20.50;36.90;;;;;;5067419;28;20632;-44
2022/03/30 08:15:26;;;;;;;;;;;20.50;36.90;;;;;;5065991;28;20014;-46
2022/03/30 08:17:54;;;;;;;;;;;20.50;36.90;;;;;;5068730;28;20011;-44
2022/03/30 08:23:05;;;;;;;;;;;20.50;36.90;;;;;;5086252;28;19925;-46
2022/03/30 08:25:33;;;;;;;;;;;20.50;36.90;;;;;;5063003;28;20357;-46
2022/03/30 08:28:01;;;;;;;;;;;20.50;36.90;;;;;;5062719;28;20336;-43
2022/03/30 08:30:28;;;;;;;;;;;20.50;36.90;;;;;;5067942;28;20102;-46
2022/03/30 08:32:55;;;;;;;;;;;20.60;37.00;;;;;;5068083;28;19925;-49
2022/03/30 08:35:22;;;;;;;;;;;20.60;37.00;;;;;;5069203;28;19998;-45
2022/03/30 08:37:49;;;;;;;;;;;20.60;37.00;;;;;;5065474;28;19924;-51
2022/03/30 08:40:16;;;;;;;;;;;20.60;37.00;;;;;;5066784;28;19928;-50
2022/03/30 08:42:43;;;;;;;;;;;20.60;37.00;;;;;;5065184;28;20010;-43
2022/03/30 08:45:11;;;;;;;;;;;20.60;37.00;;;;;;5065150;28;19967;-46
2022/03/30 08:47:38;;;;;;;;;;;20.60;37.00;;;;;;5059929;28;19929;-44
2022/03/30 08:50:05;;;;;;;;;;;20.60;37.00;;;;;;5063559;28;19924;-46
2022/03/30 08:52:32;;;;;;;;;;;20.60;37.00;;;;;;5065202;28;19925;-43
2022/03/30 08:54:59;;;;;;;;;;;20.60;37.00;;;;;;5065238;28;20188;-46
2022/03/30 08:57:26;;;;;;;;;;;20.60;37.00;;;;;;5065539;28;19921;-47
2022/03/30 09:00:03;;;;;;;;;;;20.60;37.00;;;;;;5064155;28;20281;-49
2022/03/30 09:02:35;;;;;;;;;;;20.60;37.00;;;;;;5065260;28;19920;-45
2022/03/30 09:05:14;;;;;;;;;;;20.60;37.00;;;;;;5068961;28;19974;-45
2022/03/30 09:07:41;;;;;;;;;;;20.60;37.00;;;;;;5067491;28;19947;-44
2022/03/30 09:10:12;;;;;;;;;;;20.60;37.00;;;;;;5067537;28;19929;-48
2022/03/30 09:12:39;;;;;;;;;;;20.60;37.00;;;;;;5064864;28;19967;-43
2022/03/30 09:15:08;;;;;;;;;;;20.60;37.00;;;;;;5066180;28;20011;-44
2022/03/30 09:17:38;;;;;;;;;;;20.60;37.00;;;;;;5069136;28;19925;-49
2022/03/30 09:20:05;;;;;;;;;;;20.60;37.00;;;;;;5068704;28;19931;-44
2022/03/30 09:22:33;;;;;;;;;;;20.60;37.00;;;;;;5062358;28;20077;-45
2022/03/30 09:25:00;;;;;;;;;;;20.60;37.00;;;;;;5059372;28;19925;-47
2022/03/30 09:27:27;;;;;;;;;;;20.60;37.00;;;;;;5092618;28;19921;-43
2022/03/30 09:29:53;;;;;;;;;;;20.70;37.00;;;;;;5062963;28;19932;-50
2022/03/30 09:32:20;;;;;;;;;;;20.70;37.00;;;;;;5058955;28;19946;-47
2022/03/30 09:34:49;;;;;;;;;;;20.70;37.00;;;;;;5088383;28;20099;-44
2022/03/30 09:37:16;;;;;;;;;;;20.70;37.00;;;;;;5061543;28;19931;-46
2022/03/30 09:39:43;;;;;;;;;;;20.70;37.00;;;;;;5071811;28;19932;-44
2022/03/30 09:42:14;;;;;;;;;;;20.70;37.00;;;;;;5062348;28;20084;-48
2022/03/30 09:44:47;;;;;;;;;;;20.70;37.00;;;;;;5062418;28;19924;-48
2022/03/30 09:47:14;;;;;;;;;;;20.70;37.00;;;;;;5065780;28;19962;-45
2022/03/30 09:49:42;;;;;;;;;;;20.70;37.00;;;;;;5062757;28;19921;-48
2022/03/30 09:52:15;;;;;;;;;;;20.70;37.00;;;;;;5066050;28;19990;-45
2022/03/30 09:54:42;;;;;;;;;;;20.70;37.00;;;;;;5087489;28;21192;-43
2022/03/30 09:57:13;;;;;;;;;;;20.70;37.00;;;;;;5065407;28;19935;-45
2022/03/30 09:59:56;;;;;;;;;;;20.70;36.90;;;;;;5088377;28;19929;-51
2022/03/30 10:02:22;;;;;;;;;;;20.70;36.90;;;;;;5059075;28;19925;-49
2022/03/30 10:04:49;;;;;;;;;;;20.70;36.90;;;;;;5062530;28;20369;-47
2022/03/30 10:07:17;;;;;;;;;;;20.70;36.90;;;;;;5064679;28;19924;-44
2022/03/30 10:09:44;;;;;;;;;;;20.70;36.90;;;;;;5061226;28;19967;-44
2022/03/30 10:12:12;;;;;;;;;;;20.70;36.90;;;;;;5064190;28;20344;-47
2022/03/30 10:14:39;;;;;;;;;;;20.70;36.90;;;;;;5063410;28;20036;-47
2022/03/30 10:17:06;;;;;;;;;;;20.70;36.90;;;;;;5064005;28;19951;-52
2022/03/30 10:19:33;;;;;;;;;;;20.70;36.90;;;;;;5064744;28;20358;-49
2022/03/30 10:22:01;;;;;;;;;;;20.70;36.90;;;;;;5068050;28;19984;-50
2022/03/30 10:24:34;;;;;;;;;;;20.70;36.90;;;;;;5061671;28;20019;-46
2022/03/30 10:27:03;;;;;;;;;;;20.70;36.90;;;;;;5050536;28;19928;-49
2022/03/30 10:29:30;;;;;;;;;;;20.70;36.90;;;;;;5064507;28;19928;-48
2022/03/30 10:32:10;;;;;;;;;;;20.70;36.90;;;;;;5065389;28;19978;-45
2022/03/30 10:34:40;;;;;;;;;;;20.70;36.90;;;;;;5083486;28;20369;-46
2022/03/30 10:37:09;;;;;;;;;;;20.70;36.90;;;;;;5092350;28;19929;-48
2022/03/30 10:39:37;;;;;;;;;;;20.70;36.90;;;;;;5066191;28;19931;-57
2022/03/30 10:42:05;;;;;;;;;;;20.70;36.90;;;;;;5057118;28;19947;-54
2022/03/30 10:44:35;;;;;;;;;;;20.70;37.50;;;;;;5061390;28;19924;-48
2022/03/30 10:47:09;;;;;;;;;;;20.70;36.70;;;;;;5059956;28;19983;-49
2022/03/30 10:49:40;;;;;;;;;;;20.70;36.50;;;;;;5054239;28;19924;-51
2022/03/30 10:52:25;;;;;;;;;;;20.70;36.20;;;;;;5057553;28;20014;-56
2022/03/30 10:54:55;;;;;;;;;;;20.70;36.00;;;;;;5060298;28;19925;-47
2022/03/30 10:57:41;;;;;;;;;;;20.70;35.80;;;;;;5060049;28;19920;-57
2022/03/30 11:00:08;;;;;;;;;;;20.60;35.60;;;;;;5057627;28;19925;-58
2022/03/30 11:02:41;;;;;;;;;;;20.60;35.00;;;;;;5052124;28;19931;-54
2022/03/30 11:05:11;;;;;;;;;;;20.60;35.30;;;;;;5056365;28;19950;-52
2022/03/30 11:07:48;;;;;;;;;;;20.50;34.30;;;;;;5059085;28;20429;-52
2022/03/30 11:10:18;;;;;;;;;;;20.50;33.90;;;;;;5059429;28;19954;-48
2022/03/30 11:13:02;;;;;;;;;;;20.40;33.60;;;;;;5058973;28;20448;-57
2022/03/30 11:15:28;;;;;;;;;;;20.40;33.60;;;;;;5052753;28;19935;-57
2022/03/30 11:18:00;;;;;;;;;;;20.30;33.70;;;;;;5060553;28;20386;-51
2022/03/30 11:20:26;;;;;;;;;;;20.30;33.70;;;;;;5058340;28;20005;-52
2022/03/30 11:22:53;;;;;;;;;;;20.20;33.80;;;;;;5059466;28;20029;-55
2022/03/30 11:25:22;;;;;;;;;;;20.20;33.50;;;;;;5057545;28;19929;-56
2022/03/30 11:28:04;;;;;;;;;;;20.20;33.50;;;;;;5059011;28;19925;-51
2022/03/30 11:30:31;;;;;;;;;;;20.10;33.40;;;;;;5052302;28;20370;-59
2022/03/30 11:32:59;;;;;;;;;;;20.10;33.60;;;;;;5061024;28;19932;-51
2022/03/30 11:35:28;;;;;;;;;;;20.10;33.50;;;;;;5057456;28;19955;-52
2022/03/30 11:38:00;;;;;;;;;;;20.10;33.30;;;;;;5058049;28;19925;-58
2022/03/30 11:40:28;;;;;;;;;;;20.00;33.50;;;;;;5057664;28;19932;-47
2022/03/30 11:42:57;;;;;;;;;;;20.00;33.50;;;;;;5057710;28;19920;-55
2022/03/30 11:45:25;;;;;;;;;;;20.00;33.30;;;;;;5055357;28;20014;-49
2022/03/30 11:47:52;;;;;;;;;;;19.90;32.90;;;;;;5059195;28;19967;-58
2022/03/30 11:50:21;;;;;;;;;;;19.90;33.00;;;;;;5057122;28;19925;-50
2022/03/30 11:52:53;;;;;;;;;;;19.90;33.10;;;;;;5060571;28;19924;-55
2022/03/30 11:55:20;;;;;;;;;;;19.90;33.30;;;;;;5058562;28;20208;-50
2022/03/30 11:57:48;;;;;;;;;;;19.90;33.40;;;;;;5057195;28;19924;-51
2022/03/30 12:00:17;;;;;;;;;;;19.90;33.40;;;;;;5057260;28;19929;-53
2022/03/30 12:02:44;;;;;;;;;;;19.80;33.20;;;;;;5058841;28;19943;-50
2022/03/30 12:05:11;;;;;;;;;;;19.80;33.20;;;;;;5068446;28;20019;-50
2022/03/30 12:07:38;;;;;;;;;;;19.80;33.40;;;;;;5069248;28;19924;-49
2022/03/30 12:10:06;;;;;;;;;;;19.80;33.50;;;;;;5068634;28;20016;-50
2022/03/30 12:12:35;;;;;;;;;;;19.80;33.60;;;;;;5068768;28;20027;-46
2022/03/30 12:15:03;;;;;;;;;;;19.90;33.80;;;;;;5057465;28;19939;-47
2022/03/30 12:17:31;;;;;;;;;;;19.90;33.80;;;;;;5063227;28;19936;-50
2022/03/30 12:19:57;;;;;;;;;;;19.90;33.90;;;;;;5063126;28;20330;-49
2022/03/30 12:22:24;;;;;;;;;;;19.90;34.00;;;;;;5061989;28;19925;-48
2022/03/30 12:24:52;;;;;;;;;;;19.90;34.00;;;;;;5069215;28;19928;-46
2022/03/30 12:27:18;;;;;;;;;;;19.90;34.10;;;;;;5069636;28;19925;-49
2022/03/30 12:29:46;;;;;;;;;;;19.90;34.00;;;;;;5097437;28;19924;-47
2022/03/30 12:32:15;;;;;;;;;;;19.90;34.10;;;;;;5061428;28;19970;-45
2022/03/30 12:34:42;;;;;;;;;;;19.90;34.10;;;;;;5069895;28;19925;-52
2022/03/30 12:37:10;;;;;;;;;;;19.90;34.10;;;;;;5095413;28;20357;-49
2022/03/30 12:39:39;;;;;;;;;;;20.00;34.10;;;;;;5066747;28;20243;-48
2022/03/30 12:42:07;;;;;;;;;;;20.00;34.20;;;;;;5063151;28;19925;-45
2022/03/30 12:44:34;;;;;;;;;;;20.00;34.10;;;;;;5068791;28;19921;-47
2022/03/30 12:47:02;;;;;;;;;;;20.00;34.10;;;;;;5071402;28;20015;-51
2022/03/30 12:49:35;;;;;;;;;;;20.00;34.10;;;;;;5065377;28;20011;-49
2022/03/30 12:52:09;;;;;;;;;;;20.00;34.10;;;;;;5066100;28;20011;-45
2022/03/30 12:54:36;;;;;;;;;;;20.00;34.10;;;;;;5058883;28;19931;-48
2022/03/30 12:57:03;;;;;;;;;;;20.00;34.10;;;;;;5064130;28;20016;-44
2022/03/30 12:59:31;;;;;;;;;;;20.00;34.10;;;;;;5067052;28;19932;-46
2022/03/30 13:01:58;;;;;;;;;;;20.00;34.10;;;;;;5067090;28;20367;-45
2022/03/30 13:04:27;;;;;;;;;;;20.00;34.10;;;;;;5064280;28;19928;-49
2022/03/30 13:07:11;;;;;;;;;;;20.00;34.10;;;;;;5062869;28;19920;-47
2022/03/30 13:09:38;;;;;;;;;;;20.00;34.10;;;;;;5064290;28;19937;-45
2022/03/30 13:12:05;;;;;;;;;;;20.00;34.10;;;;;;5064214;28;19927;-47
2022/03/30 13:14:32;;;;;;;;;;;20.10;34.10;;;;;;5064631;28;19928;-45
2022/03/30 13:16:59;;;;;;;;;;;20.10;34.10;;;;;;5062516;28;19929;-55
2022/03/30 13:19:27;;;;;;;;;;;20.10;34.10;;;;;;5057773;28;19936;-52
2022/03/30 13:21:56;;;;;;;;;;;20.00;33.00;;;;;;5056464;28;19927;-56
2022/03/30 13:24:24;;;;;;;;;;;20.00;32.70;;;;;;5061650;28;19931;-49
2022/03/30 13:26:53;;;;;;;;;;;20.00;32.30;;;;;;5062252;28;19932;-50
2022/03/30 13:29:19;;;;;;;;;;;20.00;32.10;;;;;;5059645;28;19968;-59
2022/03/30 13:31:46;;;;;;;;;;;19.90;31.90;;;;;;5058757;28;19924;-52
2022/03/30 13:34:13;;;;;;;;;;;19.90;32.00;;;;;;5060124;28;20392;-50
2022/03/30 13:36:41;;;;;;;;;;;19.80;31.70;;;;;;5055639;28;19948;-47
2022/03/30 13:39:08;;;;;;;;;;;19.80;31.60;;;;;;5062574;28;19920;-52
2022/03/30 13:41:36;;;;;;;;;;;19.70;31.40;;;;;;5062691;28;19931;-52
2022/03/30 13:44:03;;;;;;;;;;;19.70;31.70;;;;;;5059915;28;20038;-53
2022/03/30 13:46:30;;;;;;;;;;;19.70;31.90;;;;;;5058818;28;20463;-49
2022/03/30 13:48:57;;;;;;;;;;;19.70;32.00;;;;;;5060213;28;20273;-53
2022/03/30 13:51:23;;;;;;;;;;;19.60;31.90;;;;;;5060710;28;20044;-50
2022/03/30 13:53:50;;;;;;;;;;;19.60;31.70;;;;;;5057898;28;19925;-56
2022/03/30 13:56:19;;;;;;;;;;;19.60;31.50;;;;;;5068925;28;20273;-54
2022/03/30 13:58:50;;;;;;;;;;;19.60;31.50;;;;;;5062487;28;19937;-48
2022/03/30 14:01:17;;;;;;;;;;;19.60;31.50;;;;;;5059045;28;20028;-54
2022/03/30 14:03:46;;;;;;;;;;;19.60;31.30;;;;;;5061136;28;19950;-50
2022/03/30 14:06:13;;;;;;;;;;;19.50;31.10;;;;;;5061536;28;19924;-49
2022/03/30 14:08:40;;;;;;;;;;;19.50;31.40;;;;;;5061182;28;19928;-47
2022/03/30 14:11:07;;;;;;;;;;;19.50;31.60;;;;;;5065648;28;19924;-48
2022/03/30 14:13:34;;;;;;;;;;;19.50;31.80;;;;;;5060508;28;19929;-49
2022/03/30 14:16:02;;;;;;;;;;;19.50;32.00;;;;;;5062268;28;19920;-44
2022/03/30 14:18:29;;;;;;;;;;;19.50;32.20;;;;;;5060911;28;19928;-48
2022/03/30 14:20:57;;;;;;;;;;;19.50;32.30;;;;;;5061090;28;20222;-46
2022/03/30 14:23:24;;;;;;;;;;;19.50;32.40;;;;;;5088426;28;19924;-47
2022/03/30 14:25:51;;;;;;;;;;;19.60;32.50;;;;;;5068759;28;19928;-51
2022/03/30 14:28:17;;;;;;;;;;;19.60;32.60;;;;;;5066684;28;20246;-44